Time;durP1;ratioP1;P1;durP2;ratioP2;P2;SDS_P1;SDS_P2;PMS_P1;PMS_P2;Temp;Humidity;BMP_temperature;BMP_pressure;BME280_temperature;BME280_humidity;BME280_pressure;Samples;Min_cycle;Max_cycle;Signal;HPM_P1;HPM_P2
2022/02/05 00:02:57;;;;;;;4.95;2.97;;;3.20;99.90;;;;;;5079267;28;20207;-71
2022/02/05 00:05:35;;;;;;;3.25;1.63;;;3.20;99.90;;;;;;5079136;28;20214;-71
2022/02/05 00:08:37;;;;;;;4.22;2.78;;;3.10;99.90;;;;;;5079494;28;20508;-71
2022/02/05 00:20:10;;;;;;;1.67;1.58;;;3.00;99.90;;;;;;5058870;28;20204;-71
2022/02/05 00:41:27;;;;;;;3.25;1.50;;;3.00;99.90;;;;;;5082073;28;20208;-72
2022/02/05 00:43:59;;;;;;;3.35;1.98;;;3.00;99.90;;;;;;5081679;28;20325;-71
2022/02/05 00:46:30;;;;;;;2.13;1.83;;;2.90;99.90;;;;;;5081631;28;20564;-72
2022/02/05 00:48:57;;;;;;;5.82;1.98;;;2.90;99.90;;;;;;5081503;28;20204;-71
2022/02/05 00:51:31;;;;;;;3.85;1.90;;;2.90;99.90;;;;;;5080501;28;20263;-71
2022/02/05 00:54:09;;;;;;;2.13;1.85;;;3.00;99.90;;;;;;5082813;28;20263;-71
2022/02/05 00:59:08;;;;;;;2.28;2.00;;;3.00;99.90;;;;;;5082005;28;20551;-70
2022/02/05 01:01:35;;;;;;;1.80;1.70;;;2.90;99.90;;;;;;5082968;28;20208;-71
2022/02/05 01:04:01;;;;;;;2.25;1.50;;;2.90;99.90;;;;;;5082771;28;20283;-70
2022/02/05 01:06:27;;;;;;;1.55;1.45;;;2.80;99.90;;;;;;5082483;28;20219;-70
2022/02/05 01:08:54;;;;;;;1.95;1.85;;;2.80;99.90;;;;;;5081896;28;20432;-70
2022/02/05 01:11:20;;;;;;;2.65;1.60;;;2.80;99.90;;;;;;5081947;28;20287;-70
2022/02/05 01:13:47;;;;;;;5.00;1.52;;;2.70;99.90;;;;;;5082331;28;20210;-71
2022/02/05 01:16:23;;;;;;;2.17;1.77;;;2.70;99.90;;;;;;5082790;28;20335;-71
2022/02/05 01:18:49;;;;;;;2.55;1.80;;;2.70;99.90;;;;;;5082162;28;20211;-70
2022/02/05 01:21:39;;;;;;;4.10;1.80;;;2.60;99.90;;;;;;5081707;28;20273;-70
2022/02/05 01:24:09;;;;;;;2.30;1.75;;;2.60;99.90;;;;;;5081927;28;20234;-70
2022/02/05 01:26:45;;;;;;;5.25;2.20;;;2.60;99.90;;;;;;5080596;28;20204;-72
2022/02/05 01:29:29;;;;;;;3.08;2.60;;;2.60;99.90;;;;;;5081893;28;20200;-71
2022/02/05 01:32:00;;;;;;;4.22;2.05;;;2.60;99.90;;;;;;5082042;28;20222;-71
2022/02/05 01:53:27;;;;;;;4.20;2.55;;;2.50;99.90;;;;;;5080982;28;20185;-72
2022/02/05 01:58:39;;;;;;;3.95;2.35;;;2.50;99.90;;;;;;5080743;28;20196;-70
2022/02/05 02:11:54;;;;;;;5.10;3.00;;;2.40;99.90;;;;;;5075639;28;20312;-69
2022/02/05 02:19:42;;;;;;;2.65;2.28;;;2.30;99.90;;;;;;5077829;28;20184;-69
2022/02/05 02:22:16;;;;;;;6.18;3.05;;;2.30;99.90;;;;;;5077112;28;20306;-71
2022/02/05 02:32:28;;;;;;;4.30;2.30;;;2.20;99.90;;;;;;5080683;28;20275;-71
2022/02/05 02:35:02;;;;;;;8.65;3.40;;;2.20;99.90;;;;;;5078933;28;20215;-70
2022/02/05 02:38:14;;;;;;;7.10;2.92;;;2.20;99.90;;;;;;5080463;28;20570;-70
2022/02/05 02:40:41;;;;;;;7.22;3.60;;;2.20;99.90;;;;;;5074504;28;20682;-70
2022/02/05 02:43:15;;;;;;;4.43;2.80;;;2.20;99.90;;;;;;5082510;28;20187;-71
2022/02/05 02:45:45;;;;;;;10.82;2.70;;;2.10;99.90;;;;;;5082675;28;20593;-71
2022/02/05 02:48:12;;;;;;;5.25;3.22;;;2.10;99.90;;;;;;5085809;28;20196;-70
2022/02/05 02:59:00;;;;;;;5.60;2.95;;;2.00;99.90;;;;;;5084214;28;20188;-70
2022/02/05 03:01:30;;;;;;;6.45;3.45;;;2.00;99.90;;;;;;5084497;28;20224;-71
2022/02/05 03:03:56;;;;;;;7.85;4.38;;;2.00;99.90;;;;;;5085088;28;20200;-70
2022/02/05 03:06:23;;;;;;;4.57;3.42;;;1.90;99.90;;;;;;5085540;28;20220;-71
2022/02/05 03:08:50;;;;;;;6.53;3.72;;;1.90;99.90;;;;;;5085528;28;20264;-71
2022/02/05 03:11:19;;;;;;;6.68;3.70;;;1.80;99.90;;;;;;5085339;28;20259;-70
2022/02/05 03:13:46;;;;;;;4.25;3.03;;;1.80;99.90;;;;;;5085296;28;20203;-70
2022/02/05 03:16:23;;;;;;;5.55;3.53;;;1.80;99.90;;;;;;5084164;28;20195;-71
2022/02/05 03:21:23;;;;;;;24.77;4.90;;;1.90;99.90;;;;;;5084150;28;20204;-70
2022/02/05 03:23:49;;;;;;;8.50;3.20;;;1.80;99.90;;;;;;5082428;28;20208;-70
2022/02/05 03:26:16;;;;;;;7.45;3.08;;;1.80;99.90;;;;;;5083727;28;20283;-70
2022/02/05 03:28:42;;;;;;;6.65;3.05;;;1.80;99.90;;;;;;5084373;28;20203;-70
2022/02/05 03:31:09;;;;;;;8.00;3.85;;;1.70;99.90;;;;;;5084218;28;20659;-70
2022/02/05 03:33:35;;;;;;;4.90;3.15;;;1.70;99.90;;;;;;5084335;28;20199;-70
2022/02/05 03:36:02;;;;;;;2.90;2.60;;;1.60;99.90;;;;;;5083682;28;20686;-71
2022/02/05 03:38:29;;;;;;;7.35;3.95;;;1.60;99.90;;;;;;5082737;28;20215;-70
2022/02/05 03:40:55;;;;;;;3.25;2.53;;;1.60;99.90;;;;;;5083510;28;20732;-71
2022/02/05 03:43:22;;;;;;;5.05;3.10;;;1.70;99.90;;;;;;5082748;28;20192;-70
2022/02/05 03:45:48;;;;;;;4.25;3.00;;;1.60;99.90;;;;;;5083218;28;20200;-70
2022/02/05 03:48:15;;;;;;;10.38;3.00;;;1.50;99.90;;;;;;5082094;28;20222;-70
2022/02/05 03:50:41;;;;;;;6.00;3.60;;;1.40;99.90;;;;;;5083048;28;20215;-71
2022/02/05 03:53:08;;;;;;;6.32;4.03;;;1.30;99.90;;;;;;5082347;28;20230;-71
2022/02/05 03:55:35;;;;;;;4.60;3.90;;;1.30;99.90;;;;;;5084148;28;20263;-70
2022/02/05 03:58:03;;;;;;;12.25;3.42;;;1.30;99.90;;;;;;5082450;28;20287;-71
2022/02/05 04:00:29;;;;;;;3.10;2.50;;;1.20;99.90;;;;;;5082563;28;20582;-70
2022/02/05 04:02:59;;;;;;;6.10;2.95;;;1.30;99.90;;;;;;5082258;28;20582;-70
2022/02/05 04:05:25;;;;;;;3.60;2.80;;;1.30;99.90;;;;;;5082683;28;20211;-70
2022/02/05 04:07:53;;;;;;;4.55;2.90;;;1.40;99.90;;;;;;5083043;28;20270;-70
2022/02/05 04:10:27;;;;;;;5.55;2.85;;;1.70;99.90;;;;;;5082759;28;20200;-71
2022/02/05 04:18:40;;;;;;;7.10;3.22;;;2.10;99.90;;;;;;5059359;28;20211;-70
2022/02/05 04:21:07;;;;;;;11.00;3.00;;;2.10;99.90;;;;;;5076703;28;20612;-71
2022/02/05 04:23:33;;;;;;;10.48;3.13;;;2.10;99.90;;;;;;5081170;28;20275;-70
2022/02/05 04:26:00;;;;;;;4.00;2.30;;;2.10;99.90;;;;;;5081452;28;20233;-71
2022/02/05 04:28:26;;;;;;;5.43;2.50;;;2.10;99.90;;;;;;5081553;28;20196;-70
2022/02/05 04:30:52;;;;;;;6.03;2.78;;;2.10;99.90;;;;;;5064472;28;20203;-71
2022/02/05 04:33:19;;;;;;;10.48;2.80;;;2.10;99.90;;;;;;5083271;28;20726;-70
2022/02/05 04:35:46;;;;;;;6.60;2.90;;;2.20;99.90;;;;;;5082520;28;20604;-71
2022/02/05 04:38:12;;;;;;;14.95;9.75;;;2.10;99.90;;;;;;5082519;28;20200;-70
2022/02/05 04:41:28;;;;;;;9.23;7.70;;;2.20;99.90;;;;;;5082596;28;20204;-70
2022/02/05 04:46:20;;;;;;;6.25;3.55;;;2.30;99.90;;;;;;5081913;28;20630;-70
2022/02/05 05:01:21;;;;;;;7.00;2.50;;;1.90;99.90;;;;;;5082242;28;20231;-70
2022/02/05 05:04:06;;;;;;;5.40;2.47;;;1.90;99.90;;;;;;5082800;28;20196;-71
2022/02/05 05:07:43;;;;;;;6.78;2.30;;;1.90;99.90;;;;;;5082146;28;20230;-70
2022/02/05 05:09:28;;;;;;;3.85;2.28;;;2.00;99.90;;;;;;5080686;28;20282;-70
2022/02/05 05:20:16;;;;;;;3.67;2.35;;;2.20;99.90;;;;;;5068350;28;20203;-71
2022/02/05 05:22:43;;;;;;;6.47;2.65;;;2.20;99.90;;;;;;5080950;28;20220;-71
2022/02/05 05:25:10;;;;;;;8.77;2.70;;;2.20;99.90;;;;;;5079939;28;20196;-71
2022/02/05 05:27:37;;;;;;;5.35;2.85;;;2.20;99.90;;;;;;5081343;28;20200;-71
2022/02/05 05:30:05;;;;;;;10.75;3.70;;;2.30;99.90;;;;;;5080870;28;20286;-71
2022/02/05 05:32:32;;;;;;;4.15;2.85;;;2.30;99.90;;;;;;5081139;28;20282;-71
2022/02/05 05:34:58;;;;;;;7.40;3.33;;;2.40;99.90;;;;;;5081156;28;20203;-71
2022/02/05 05:37:25;;;;;;;8.32;2.53;;;2.50;99.90;;;;;;5081594;28;20209;-71
2022/02/05 05:39:52;;;;;;;6.38;2.90;;;2.50;99.90;;;;;;5080201;28;20203;-71
2022/02/05 05:42:24;;;;;;;4.55;2.60;;;2.60;99.90;;;;;;5080443;28;20259;-71
2022/02/05 05:52:21;;;;;;;4.65;2.83;;;2.70;99.90;;;;;;5080012;28;20203;-71
2022/02/05 05:54:48;;;;;;;4.32;3.58;;;2.80;99.90;;;;;;5081244;28;20290;-71
2022/02/05 05:57:15;;;;;;;5.85;3.13;;;2.80;99.90;;;;;;5082112;28;20207;-71
2022/02/05 05:59:43;;;;;;;3.42;3.08;;;2.80;99.90;;;;;;5081344;28;20318;-71
2022/02/05 06:02:10;;;;;;;6.90;2.92;;;2.80;99.90;;;;;;5081542;28;20228;-71
2022/02/05 06:04:37;;;;;;;4.30;3.00;;;2.80;99.90;;;;;;5080871;28;20199;-71
2022/02/05 06:07:04;;;;;;;8.32;2.75;;;2.80;99.90;;;;;;5080082;28;20726;-71
2022/02/05 06:09:32;;;;;;;10.50;3.03;;;2.80;99.90;;;;;;5079934;28;20276;-71
2022/02/05 06:11:58;;;;;;;10.48;3.28;;;2.80;99.90;;;;;;5079591;28;20233;-70
2022/02/05 06:14:27;;;;;;;8.90;3.20;;;2.80;99.90;;;;;;5080000;28;20286;-70
2022/02/05 06:17:03;;;;;;;6.10;4.15;;;2.80;99.90;;;;;;5079997;28;20751;-71
2022/02/05 06:19:29;;;;;;;8.10;3.45;;;2.80;99.90;;;;;;5079809;28;20237;-71
2022/02/05 06:21:55;;;;;;;6.10;3.00;;;2.90;99.90;;;;;;5085209;28;20216;-72
2022/02/05 06:24:22;;;;;;;9.93;3.45;;;2.90;99.90;;;;;;5083778;28;20255;-71
2022/02/05 06:26:48;;;;;;;6.88;3.30;;;2.90;99.90;;;;;;5083246;28;20674;-71
2022/02/05 06:29:15;;;;;;;9.82;4.97;;;2.90;99.90;;;;;;5082811;28;20268;-71
2022/02/05 06:31:41;;;;;;;7.43;3.20;;;2.90;99.90;;;;;;5083818;28;20245;-71
2022/02/05 06:34:07;;;;;;;12.52;4.13;;;2.90;99.90;;;;;;5082678;28;20204;-71
2022/02/05 06:36:34;;;;;;;6.93;3.60;;;2.90;99.90;;;;;;5081316;28;20575;-71
2022/02/05 06:39:01;;;;;;;7.70;3.50;;;2.90;99.90;;;;;;5083699;28;20329;-70
2022/02/05 06:41:27;;;;;;;7.43;3.30;;;2.90;99.90;;;;;;5083101;28;20196;-71
2022/02/05 06:43:54;;;;;;;14.20;4.22;;;2.90;99.90;;;;;;5084009;28;20303;-71
2022/02/05 06:46:20;;;;;;;6.50;3.78;;;2.90;99.90;;;;;;5083766;28;20207;-70
2022/02/05 06:48:46;;;;;;;4.50;2.63;;;2.90;99.90;;;;;;5084525;28;20552;-71
2022/02/05 06:51:13;;;;;;;6.25;3.53;;;2.80;99.90;;;;;;5083291;28;20203;-71
2022/02/05 06:53:39;;;;;;;8.07;3.15;;;2.80;99.90;;;;;;5084931;28;20694;-71
2022/02/05 06:56:06;;;;;;;3.45;2.60;;;2.70;99.90;;;;;;5083626;28;20329;-71
2022/02/05 06:58:32;;;;;;;5.05;3.05;;;2.70;99.90;;;;;;5080920;28;20200;-70
2022/02/05 07:00:58;;;;;;;4.47;3.15;;;2.60;99.90;;;;;;5076946;28;20232;-69
2022/02/05 07:03:25;;;;;;;5.75;3.00;;;2.60;99.90;;;;;;5077579;28;20223;-70
2022/02/05 07:05:51;;;;;;;6.45;3.20;;;2.70;99.90;;;;;;5077214;28;20212;-69
2022/02/05 07:08:18;;;;;;;14.18;3.95;;;2.70;99.90;;;;;;5077181;28;20205;-69
2022/02/05 07:10:44;;;;;;;7.40;4.47;;;2.70;99.90;;;;;;5076544;28;20241;-69
2022/02/05 07:15:52;;;;;;;11.00;4.65;;;2.60;99.90;;;;;;5077301;28;20677;-69
2022/02/05 07:18:37;;;;;;;7.50;3.67;;;2.60;99.90;;;;;;5076520;28;20219;-69
2022/02/05 07:21:09;;;;;;;7.43;3.85;;;2.60;99.90;;;;;;5075944;28;20204;-69
2022/02/05 07:23:54;;;;;;;5.78;3.45;;;2.60;99.90;;;;;;5076885;28;20227;-69
2022/02/05 07:29:15;;;;;;;9.55;3.63;;;2.70;99.90;;;;;;5077762;28;20620;-70
2022/02/05 07:31:43;;;;;;;8.40;4.20;;;2.70;99.90;;;;;;5078787;28;20207;-69
2022/02/05 07:34:11;;;;;;;10.85;4.28;;;2.90;99.90;;;;;;5076095;28;20203;-70
2022/02/05 07:36:39;;;;;;;6.70;4.13;;;2.80;99.90;;;;;;5077731;28;20536;-70
2022/02/05 07:39:06;;;;;;;4.65;3.63;;;2.90;99.90;;;;;;5078374;28;20565;-69
2022/02/05 07:41:36;;;;;;;7.05;4.00;;;3.00;99.90;;;;;;5079355;28;20196;-70
2022/02/05 07:44:04;;;;;;;8.00;3.95;;;3.00;99.90;;;;;;5079178;28;20215;-70
2022/02/05 07:46:31;;;;;;;7.60;4.40;;;3.00;99.90;;;;;;5078905;28;20191;-69
2022/02/05 07:48:57;;;;;;;8.63;4.05;;;3.10;99.90;;;;;;5079020;28;20207;-70
2022/02/05 07:51:24;;;;;;;6.05;3.50;;;3.10;99.90;;;;;;5077703;28;20287;-69
2022/02/05 07:53:50;;;;;;;8.48;3.90;;;3.20;99.90;;;;;;5077458;28;20248;-71
2022/02/05 07:56:17;;;;;;;11.00;4.40;;;3.30;99.90;;;;;;5076370;28;20200;-71
2022/02/05 07:58:44;;;;;;;7.50;3.33;;;3.30;99.90;;;;;;5075959;28;20206;-70
2022/02/05 08:01:10;;;;;;;7.15;4.20;;;3.30;99.90;;;;;;5076897;28;20235;-70
2022/02/05 08:03:37;;;;;;;5.93;3.70;;;3.40;99.90;;;;;;5078599;28;20219;-69
2022/02/05 08:06:11;;;;;;;9.10;3.55;;;3.40;99.90;;;;;;5078404;28;20220;-70
2022/02/05 08:08:38;;;;;;;5.85;3.83;;;3.50;99.90;;;;;;5078304;28;20203;-70
2022/02/05 08:11:08;;;;;;;6.00;3.80;;;3.60;99.90;;;;;;5078288;28;20207;-70
2022/02/05 08:13:35;;;;;;;9.77;4.50;;;3.60;99.90;;;;;;5078602;28;20214;-70
2022/02/05 08:16:47;;;;;;;7.93;4.47;;;3.60;99.90;;;;;;5077225;28;20648;-70
2022/02/05 08:18:55;;;;;;;7.97;4.25;;;3.60;99.90;;;;;;5078262;28;20208;-70
2022/02/05 08:21:22;;;;;;;5.95;3.75;;;3.60;99.90;;;;;;5077203;28;20674;-70
2022/02/05 08:23:48;;;;;;;4.13;3.50;;;3.60;99.90;;;;;;5074389;28;20219;-70
2022/02/05 08:26:15;;;;;;;6.65;3.65;;;3.60;99.90;;;;;;5073964;28;20200;-70
2022/02/05 08:28:41;;;;;;;9.48;4.45;;;3.60;99.90;;;;;;5076642;28;20308;-70
2022/02/05 08:31:08;;;;;;;8.05;3.80;;;3.60;99.90;;;;;;5076205;28;20187;-70
2022/02/05 08:33:41;;;;;;;12.77;4.30;;;3.60;99.90;;;;;;5076607;28;20204;-68
2022/02/05 08:36:08;;;;;;;12.57;3.95;;;3.60;99.90;;;;;;5074932;28;20207;-69
2022/02/05 08:38:34;;;;;;;14.07;4.50;;;3.60;99.90;;;;;;5076643;28;20253;-69
2022/02/05 08:41:01;;;;;;;6.10;4.13;;;3.80;99.90;;;;;;5076533;28;20734;-70
2022/02/05 08:43:30;;;;;;;4.45;3.88;;;3.80;99.90;;;;;;5076409;28;20223;-69
2022/02/05 08:45:58;;;;;;;10.23;3.72;;;3.70;99.90;;;;;;5076708;28;20257;-69
2022/02/05 08:48:25;;;;;;;7.63;4.28;;;3.80;99.90;;;;;;5075181;28;20253;-69
2022/02/05 08:50:52;;;;;;;9.18;4.20;;;3.80;99.90;;;;;;5076562;28;20342;-69
2022/02/05 08:53:21;;;;;;;10.88;4.75;;;3.80;99.90;;;;;;5076523;28;20265;-71
2022/02/05 08:55:50;;;;;;;8.18;5.05;;;3.90;99.90;;;;;;5076395;28;20200;-70
2022/02/05 08:58:17;;;;;;;6.25;4.05;;;4.00;99.90;;;;;;5075269;28;20655;-71
2022/02/05 09:00:49;;;;;;;6.60;4.13;;;4.10;99.90;;;;;;5074914;28;20605;-70
2022/02/05 09:03:30;;;;;;;7.90;4.00;;;4.00;99.90;;;;;;5076113;28;20220;-70
2022/02/05 09:05:56;;;;;;;7.15;4.10;;;4.10;99.90;;;;;;5075619;28;20578;-69
2022/02/05 09:08:33;;;;;;;6.97;4.05;;;4.30;99.90;;;;;;5075758;28;20215;-70
2022/02/05 09:11:12;;;;;;;9.30;3.65;;;4.30;99.90;;;;;;5076082;28;20200;-70
2022/02/05 09:16:13;;;;;;;5.72;4.13;;;4.40;99.90;;;;;;5074105;28;20187;-71
2022/02/05 09:18:44;;;;;;;8.45;4.07;;;4.50;99.90;;;;;;5074258;28;20200;-70
2022/02/05 09:21:11;;;;;;;11.38;3.78;;;4.70;99.90;;;;;;5076372;28;20718;-71
2022/02/05 09:23:39;;;;;;;11.88;3.63;;;4.80;99.90;;;;;;5078150;28;20227;-71
2022/02/05 09:26:09;;;;;;;9.57;3.45;;;4.70;99.90;;;;;;5079635;28;20219;-71
2022/02/05 09:28:36;;;;;;;8.02;3.88;;;4.70;99.90;;;;;;5081443;28;20203;-72
2022/02/05 09:31:24;;;;;;;10.35;4.07;;;4.90;99.90;;;;;;5079015;28;20278;-70
2022/02/05 09:33:48;;;;;;;5.28;3.25;;;4.90;99.90;;;;;;5080481;28;20572;-71
2022/02/05 09:36:15;;;;;;;15.70;3.85;;;5.10;99.90;;;;;;5079562;28;20196;-71
2022/02/05 09:38:41;;;;;;;9.95;3.53;;;4.90;99.90;;;;;;5079642;28;20263;-72
2022/02/05 09:41:07;;;;;;;9.32;3.80;;;4.90;99.90;;;;;;5080576;28;20682;-71
2022/02/05 09:43:34;;;;;;;8.60;4.35;;;5.10;99.90;;;;;;5078125;28;20645;-71
2022/02/05 09:46:00;;;;;;;9.98;3.80;;;4.90;99.90;;;;;;5077930;28;20196;-71
2022/02/05 09:48:29;;;;;;;9.20;3.80;;;5.10;99.90;;;;;;5078667;28;20196;-71
2022/02/05 09:51:04;;;;;;;9.65;3.53;;;5.10;99.90;;;;;;5077294;28;20274;-72
2022/02/05 09:53:31;;;;;;;12.25;3.85;;;5.20;99.90;;;;;;5080666;28;20670;-71
2022/02/05 09:55:57;;;;;;;9.60;3.85;;;5.20;99.90;;;;;;5080487;28;20207;-71
2022/02/05 09:58:24;;;;;;;10.05;4.07;;;5.30;99.90;;;;;;5082091;28;20282;-71
2022/02/05 10:01:03;;;;;;;6.57;4.07;;;5.50;99.90;;;;;;5081735;28;20234;-71
2022/02/05 10:03:34;;;;;;;11.00;3.72;;;5.60;99.90;;;;;;5083061;28;20284;-70
2022/02/05 10:06:05;;;;;;;10.40;3.83;;;5.50;99.90;;;;;;5082940;28;20220;-70
2022/02/05 10:08:35;;;;;;;9.43;4.07;;;5.60;99.90;;;;;;5080894;28;20292;-71
2022/02/05 10:11:02;;;;;;;10.00;3.95;;;5.60;99.90;;;;;;5083827;28;20180;-70
2022/02/05 10:13:30;;;;;;;6.15;3.33;;;5.70;99.90;;;;;;5082856;28;20211;-71
2022/02/05 10:15:57;;;;;;;5.38;3.78;;;5.70;99.90;;;;;;5085461;28;20203;-70
2022/02/05 10:18:33;;;;;;;8.80;3.75;;;5.80;99.90;;;;;;5081712;28;20207;-70
2022/02/05 10:21:03;;;;;;;6.75;3.65;;;5.90;99.90;;;;;;5081983;28;20267;-71
2022/02/05 10:23:30;;;;;;;8.68;4.28;;;6.10;99.90;;;;;;5082936;28;20746;-70
2022/02/05 10:25:57;;;;;;;7.68;3.72;;;6.10;99.90;;;;;;5082795;28;20199;-70
2022/02/05 10:28:24;;;;;;;8.65;4.47;;;6.40;99.90;;;;;;5082191;28;20207;-70
2022/02/05 10:30:53;;;;;;;7.70;3.90;;;6.10;99.90;;;;;;5083804;28;20204;-70
2022/02/05 10:33:26;;;;;;;4.85;3.70;;;6.20;99.90;;;;;;5085869;28;20234;-71
2022/02/05 10:44:17;;;;;;;12.23;3.85;;;5.80;99.90;;;;;;5082901;28;20369;-70
2022/02/05 10:46:43;;;;;;;11.63;4.40;;;5.90;99.90;;;;;;5080602;28;20203;-70
2022/02/05 10:49:12;;;;;;;5.85;3.15;;;5.80;99.90;;;;;;5082434;28;20727;-71
2022/02/05 10:51:45;;;;;;;11.93;4.22;;;5.80;99.90;;;;;;5082468;28;20199;-70
2022/02/05 10:54:22;;;;;;;7.38;3.67;;;5.90;99.90;;;;;;5083801;28;20279;-70
2022/02/05 10:57:02;;;;;;;11.45;4.82;;;5.80;99.90;;;;;;5083428;28;20203;-71
2022/02/05 11:08:02;;;;;;;6.32;3.08;;;5.70;99.90;;;;;;5079946;28;20596;-71
2022/02/05 11:10:36;;;;;;;32.15;5.28;;;5.80;99.90;;;;;;5080826;28;20207;-69
2022/02/05 11:21:17;;;;;;;8.15;3.30;;;6.20;99.90;;;;;;5081672;28;20185;-70
2022/02/05 11:23:46;;;;;;;8.32;3.38;;;6.00;99.90;;;;;;5081022;28;20246;-70
2022/02/05 11:26:13;;;;;;;12.52;3.00;;;6.10;99.90;;;;;;5083307;28;20192;-69
2022/02/05 11:28:51;;;;;;;9.30;3.30;;;6.30;99.90;;;;;;5083624;28;20283;-69
2022/02/05 11:31:31;;;;;;;8.25;3.20;;;6.30;99.90;;;;;;5083650;28;20199;-70
2022/02/05 11:34:13;;;;;;;5.60;3.10;;;6.40;99.90;;;;;;5082309;28;20644;-69
2022/02/05 11:37:05;;;;;;;8.88;2.80;;;6.60;99.90;;;;;;5082719;28;20211;-70
2022/02/05 11:39:52;;;;;;;5.15;2.45;;;6.80;99.90;;;;;;5079463;28;20212;-70
2022/02/05 11:42:36;;;;;;;9.50;3.30;;;6.70;99.90;;;;;;5082409;28;20234;-70
2022/02/05 11:45:24;;;;;;;6.70;2.90;;;6.70;99.90;;;;;;5081668;28;20199;-70
2022/02/05 11:47:51;;;;;;;6.60;2.70;;;6.80;99.90;;;;;;5082885;28;20204;-70
2022/02/05 11:50:19;;;;;;;25.10;3.65;;;6.90;99.90;;;;;;5082608;28;20197;-71
2022/02/05 11:52:45;;;;;;;7.22;3.13;;;6.90;99.90;;;;;;5083304;28;20192;-70
2022/02/05 11:55:28;;;;;;;8.70;3.70;;;6.90;99.90;;;;;;5082245;28;20286;-71
2022/02/05 11:57:57;;;;;;;6.72;3.47;;;6.90;99.90;;;;;;5082078;28;20184;-71
2022/02/05 12:00:36;;;;;;;4.78;3.65;;;6.80;99.90;;;;;;5079837;28;20690;-70
2022/02/05 12:03:25;;;;;;;8.63;3.35;;;6.80;99.90;;;;;;5080956;28;20298;-70
2022/02/05 12:05:59;;;;;;;9.80;3.25;;;6.90;99.90;;;;;;5080052;28;20224;-70
2022/02/05 12:08:33;;;;;;;15.27;3.30;;;6.90;99.90;;;;;;5080667;28;20211;-71
2022/02/05 12:11:02;;;;;;;5.93;2.70;;;7.60;99.90;;;;;;5080899;28;20181;-71
2022/02/05 12:13:40;;;;;;;9.52;2.90;;;7.80;99.90;;;;;;5080313;28;20546;-71
2022/02/05 12:16:08;;;;;;;7.38;3.20;;;7.50;99.90;;;;;;5081430;28;20210;-69
2022/02/05 12:19:08;;;;;;;4.93;2.80;;;7.30;99.90;;;;;;5079671;28;20210;-71
2022/02/05 12:22:03;;;;;;;7.50;3.72;;;7.20;99.90;;;;;;5079931;28;20188;-70
2022/02/05 12:25:14;;;;;;;12.02;3.08;;;7.20;99.90;;;;;;5080955;28;20687;-70
2022/02/05 12:27:41;;;;;;;19.95;3.35;;;7.10;99.90;;;;;;5079787;28;20200;-71
2022/02/05 12:30:26;;;;;;;10.70;3.13;;;7.00;99.90;;;;;;5081129;28;20201;-71
2022/02/05 12:32:57;;;;;;;6.45;2.30;;;7.00;99.90;;;;;;5081127;28;20290;-70
2022/02/05 12:35:25;;;;;;;6.80;2.10;;;7.00;99.90;;;;;;5081041;28;20199;-70
2022/02/05 12:37:53;;;;;;;4.90;2.42;;;7.00;99.90;;;;;;5081635;28;20203;-70
2022/02/05 12:40:19;;;;;;;9.02;2.05;;;7.00;99.90;;;;;;5080144;28;20263;-70
2022/02/05 12:42:53;;;;;;;12.32;4.30;;;7.00;99.90;;;;;;5081119;28;20203;-71
2022/02/05 12:45:33;;;;;;;6.50;1.95;;;7.00;99.90;;;;;;5081599;28;20222;-70
2022/02/05 12:48:05;;;;;;;10.88;2.22;;;7.00;99.90;;;;;;5080566;28;20204;-70
2022/02/05 12:50:31;;;;;;;8.38;2.40;;;7.10;99.90;;;;;;5080064;28;20608;-70
2022/02/05 12:53:00;;;;;;;17.25;3.45;;;7.10;99.90;;;;;;5081280;28;20580;-70
2022/02/05 12:55:33;;;;;;;15.00;2.30;;;7.30;99.90;;;;;;5082372;28;20279;-71
2022/02/05 12:58:00;;;;;;;9.68;2.75;;;7.40;99.90;;;;;;5081606;28;20222;-70
2022/02/05 13:00:27;;;;;;;5.45;2.10;;;7.40;99.90;;;;;;5081503;28;20243;-69
2022/02/05 13:02:53;;;;;;;8.52;2.90;;;7.40;99.90;;;;;;5080636;28;20400;-70
2022/02/05 13:05:33;;;;;;;19.52;3.47;;;7.40;99.90;;;;;;5079087;28;20204;-71
2022/02/05 13:08:01;;;;;;;9.20;2.70;;;7.30;99.90;;;;;;5077147;28;20623;-69
2022/02/05 13:10:45;;;;;;;9.45;2.03;;;7.30;99.90;;;;;;5079194;28;20200;-70
2022/02/05 13:13:12;;;;;;;9.27;2.40;;;7.30;99.90;;;;;;5079499;28;20290;-69
2022/02/05 13:15:39;;;;;;;5.65;1.60;;;7.30;99.90;;;;;;5080072;28;20219;-70
2022/02/05 13:34:35;;;;;;;7.45;2.08;;;7.50;99.90;;;;;;5079032;28;20192;-71
2022/02/05 13:37:18;;;;;;;7.28;2.30;;;7.80;99.90;;;;;;5080025;28;20281;-70
2022/02/05 13:39:58;;;;;;;5.22;1.75;;;7.80;99.90;;;;;;5079909;28;20188;-71
2022/02/05 13:42:28;;;;;;;8.90;2.90;;;7.80;99.90;;;;;;5080230;28;20278;-71
2022/02/05 13:45:23;;;;;;;4.57;1.98;;;7.80;99.90;;;;;;5080259;28;20205;-71
2022/02/05 13:47:51;;;;;;;6.90;3.33;;;7.80;99.90;;;;;;5077147;28;20563;-70
2022/02/05 13:50:31;;;;;;;10.30;2.42;;;7.80;99.90;;;;;;5073651;28;20206;-70
2022/02/05 13:53:03;;;;;;;8.23;2.78;;;7.90;99.90;;;;;;5073165;28;20264;-70
2022/02/05 13:55:32;;;;;;;5.30;1.80;;;7.90;99.90;;;;;;5073416;28;20204;-70
2022/02/05 13:58:05;;;;;;;6.75;2.50;;;7.80;99.90;;;;;;5072018;28;20196;-69
2022/02/05 14:00:49;;;;;;;20.92;8.18;;;7.70;99.90;;;;;;5073322;28;20238;-70
2022/02/05 14:03:36;;;;;;;8.10;3.05;;;7.70;99.90;;;;;;5074771;28;20195;-71
2022/02/05 14:06:04;;;;;;;23.58;13.35;;;7.60;99.90;;;;;;5074608;28;20760;-70
2022/02/05 14:08:44;;;;;;;8.13;4.00;;;7.60;99.90;;;;;;5075156;28;20199;-70
2022/02/05 14:11:13;;;;;;;36.20;21.85;;;7.60;99.90;;;;;;5075178;28;20211;-70
2022/02/05 14:13:41;;;;;;;19.35;9.10;;;7.60;99.90;;;;;;5074587;28;20203;-70
2022/02/05 14:16:09;;;;;;;11.43;4.80;;;7.60;99.90;;;;;;5074761;28;20218;-70
2022/02/05 14:18:54;;;;;;;3.50;2.03;;;7.60;99.90;;;;;;5074470;28;20620;-70
2022/02/05 14:21:45;;;;;;;10.48;5.60;;;7.60;99.90;;;;;;5073602;28;20215;-69
2022/02/05 14:24:19;;;;;;;9.00;4.50;;;7.60;99.90;;;;;;5073506;28;20215;-70
2022/02/05 14:27:29;;;;;;;9.77;3.95;;;7.80;99.90;;;;;;5073877;28;20245;-70
2022/02/05 14:29:56;;;;;;;6.30;3.80;;;7.90;99.90;;;;;;5072435;28;20715;-70
2022/02/05 14:40:42;;;;;;;6.47;1.95;;;6.80;99.90;;;;;;5074809;28;20271;-70
2022/02/05 14:43:00;;;;;;;2.53;1.80;;;7.00;99.90;;;;;;5078521;28;20200;-69
2022/02/05 14:45:27;;;;;;;6.28;1.40;;;7.70;99.90;;;;;;5078618;28;20220;-70
2022/02/05 14:47:53;;;;;;;3.90;1.40;;;8.10;99.90;;;;;;5078661;28;20196;-70
2022/02/05 14:50:19;;;;;;;7.97;2.50;;;7.90;99.90;;;;;;5077259;28;20585;-71
2022/02/05 14:52:46;;;;;;;2.40;1.42;;;7.40;99.90;;;;;;5077034;28;20196;-70
2022/02/05 14:55:12;;;;;;;6.93;1.92;;;7.40;99.90;;;;;;5077126;28;20671;-70
2022/02/05 14:57:39;;;;;;;4.72;2.53;;;7.30;99.90;;;;;;5078002;28;20200;-69
2022/02/05 15:00:06;;;;;;;3.78;1.40;;;7.70;99.90;;;;;;5077063;28;20238;-70
2022/02/05 15:02:33;;;;;;;4.30;1.70;;;8.50;99.90;;;;;;5076424;28;20207;-71
2022/02/05 15:05:08;;;;;;;3.97;1.95;;;8.80;99.90;;;;;;5076680;28;20216;-70
2022/02/05 15:07:34;;;;;;;5.43;3.47;;;8.90;99.90;;;;;;5075128;28;20235;-70
2022/02/05 15:10:01;;;;;;;7.93;2.13;;;9.30;99.90;;;;;;5076368;28;20567;-70
2022/02/05 15:12:27;;;;;;;6.57;2.25;;;8.90;99.90;;;;;;5076384;28;20648;-70
2022/02/05 15:14:54;;;;;;;5.10;2.13;;;8.70;99.90;;;;;;5076399;28;20207;-70
2022/02/05 15:17:20;;;;;;;5.03;2.25;;;8.40;99.90;;;;;;5076551;28;20662;-71
2022/02/05 15:19:47;;;;;;;4.93;1.83;;;8.30;99.90;;;;;;5077566;28;20257;-70
2022/02/05 15:22:13;;;;;;;4.93;1.70;;;8.00;99.90;;;;;;5076288;28;20691;-70
2022/02/05 15:24:40;;;;;;;5.47;2.60;;;8.20;99.90;;;;;;5078054;28;20220;-70
2022/02/05 15:27:07;;;;;;;5.35;2.15;;;8.40;99.90;;;;;;5077527;28;20196;-70
2022/02/05 15:29:33;;;;;;;7.57;2.90;;;8.00;99.90;;;;;;5078135;28;20199;-71
2022/02/05 15:32:00;;;;;;;5.05;2.50;;;7.50;99.90;;;;;;5077904;28;20250;-70
2022/02/05 15:34:26;;;;;;;5.38;4.05;;;7.10;99.90;;;;;;5078010;28;20218;-70
2022/02/05 15:36:58;;;;;;;7.15;3.47;;;7.00;99.90;;;;;;5074750;28;20272;-69
2022/02/05 15:44:37;;;;;;;6.72;2.55;;;7.00;99.90;;;;;;5080976;28;20204;-71
2022/02/05 15:47:04;;;;;;;6.15;2.30;;;7.00;99.90;;;;;;5081622;28;20204;-71
2022/02/05 15:49:30;;;;;;;25.80;12.65;;;7.10;99.90;;;;;;5081422;28;20663;-70
2022/02/05 15:52:00;;;;;;;12.82;6.13;;;7.10;99.90;;;;;;5081054;28;20200;-70
2022/02/05 15:54:29;;;;;;;28.90;15.60;;;7.10;99.90;;;;;;5079628;28;20204;-70
2022/02/05 15:59:28;;;;;;;7.03;4.18;;;7.20;99.90;;;;;;5082028;28;20232;-71
2022/02/05 16:01:54;;;;;;;3.30;1.90;;;7.20;99.90;;;;;;5081905;28;20184;-70
2022/02/05 16:04:21;;;;;;;6.25;2.70;;;7.00;99.90;;;;;;5082296;28;20223;-71
2022/02/05 16:06:48;;;;;;;5.75;2.65;;;7.00;99.90;;;;;;5082477;28;20224;-71
2022/02/05 16:09:14;;;;;;;9.45;1.80;;;6.80;99.90;;;;;;5082548;28;20648;-71
2022/02/05 16:11:41;;;;;;;3.70;1.98;;;6.70;99.90;;;;;;5081083;28;20651;-70
2022/02/05 16:14:07;;;;;;;2.10;1.42;;;6.60;99.90;;;;;;5081645;28;20204;-70
2022/02/05 16:16:34;;;;;;;4.13;2.05;;;6.50;99.90;;;;;;5082211;28;20215;-69
2022/02/05 16:19:00;;;;;;;5.97;2.30;;;6.50;99.90;;;;;;5082497;28;20204;-71
2022/02/05 16:21:27;;;;;;;5.65;2.88;;;6.40;99.90;;;;;;5081587;28;20190;-70
2022/02/05 16:23:53;;;;;;;2.67;2.00;;;6.30;99.90;;;;;;5081905;28;20216;-71